Froland — V2QM8 — position and weather

sailwx.info

Track history (hours):
 
Tides and Currents Weather Stations Pressure Air Temp Water Temp Dewpoint Dewpoint Depression Visibility Wind Speed Wind Dir Waves Ship Positions

Froland

Last reported at 2017-Dec-11 12:15 UTC. Time now 2017-Dec-16 01:28 UTC.
Position N 60°28' E 019°02'.

Length 107 m; draft 5.7 m.

Type: Cargo ship. MMSI: 305714000.

Date/timePositionNaut miles runAvg speedWind from/ knotsBaromVisibWave heightAir tempDewpointWater temp
2017-Dec-11 12:15N 60°28' E 019°02'311.9
2017-Dec-11 12:00N 60°25' E 019°02'611.8
2017-Dec-11 11:31N 60°19' E 019°01'611.6
2017-Dec-11 11:01N 60°13' E 019°04'611.4
2017-Dec-11 10:31N 60°09' E 019°11'612.0
2017-Dec-11 10:00N 60°04' E 019°18'611.7
2017-Dec-11 09:28N 59°59' E 019°26'1111.5
2017-Dec-11 08:33N 59°51' E 019°39'111.4
2017-Dec-11 08:29N 59°50' E 019°40'25210.3
2017-Dec-10 07:55N 55°59' E 016°32'511.7
2017-Dec-10 07:30N 55°56' E 016°25'611.3
2017-Dec-10 07:00N 55°54' E 016°16'611.4
2017-Dec-10 06:31N 55°51' E 016°07'611.3
2017-Dec-10 06:00N 55°48' E 015°58'911.4
2017-Dec-10 05:11N 55°44' E 015°44'211.5
2017-Dec-10 05:00N 55°43' E 015°40'1111.5
2017-Dec-10 04:04N 55°38' E 015°23'111.4
2017-Dec-10 03:57N 55°37' E 015°21'611.5
2017-Dec-10 03:25N 55°34' E 015°12'811.5
2017-Dec-10 02:42N 55°30' E 014°59'211.6
2017-Dec-10 02:31N 55°29' E 014°56'611.5
2017-Dec-10 02:01N 55°26' E 014°47'611.4
2017-Dec-10 01:31N 55°24' E 014°38'611.0
2017-Dec-10 01:01N 55°19' E 014°32'511.0
2017-Dec-10 00:31N 55°15' E 014°27'510.7
2017-Dec-10 00:01N 55°11' E 014°21'511.0
2017-Dec-09 23:31N 55°06' E 014°15'8511.4
2017-Dec-09 16:00N 54°24' E 012°06'1212.1
2017-Dec-09 14:59N 54°25' E 011°45'612.5
2017-Dec-09 14:30N 54°27' E 011°35'612.7
2017-Dec-09 14:01N 54°30' E 011°26'713.0
2017-Dec-09 13:30N 54°33' E 011°15'612.6
2017-Dec-09 13:01N 54°35' E 011°05'612.2
2017-Dec-09 12:31N 54°34' E 010°54'611.9
2017-Dec-09 12:01N 54°34' E 010°44'611.7
2017-Dec-09 11:30N 54°33' E 010°34'27 6.5
2017-Dec-09 07:17N 54°22' E 009°51'2 7.7
2017-Dec-09 06:59N 54°22' E 009°47'4 8.2
2017-Dec-09 06:30N 54°18' E 009°43'4 7.7
2017-Dec-09 06:01N 54°16' E 009°38'1 0.9
2017-Dec-09 05:23N 54°15' E 009°37'0 0.2
2017-Dec-09 05:00N 54°15' E 009°37'3 5.8
2017-Dec-09 04:30N 54°13' E 009°35'4 8.6
2017-Dec-09 04:00N 54°11' E 009°29'5 8.7
2017-Dec-09 03:26N 54°09' E 009°21'4 8.1
2017-Dec-09 02:58N 54°05' E 009°19'4 8.6
2017-Dec-09 02:30N 54°01' E 009°18'4 8.2
2017-Dec-09 01:59N 53°57' E 009°15'3 7.1
2017-Dec-09 01:31N 53°55' E 009°11'2 3.5
2017-Dec-09 01:01N 53°54' E 009°09'0 0.1
2017-Dec-09 00:31N 53°54' E 009°09'1 2.8
2017-Dec-09 00:00N 53°53' E 009°06'1 1.8
2017-Dec-08 23:31N 53°53' E 009°05'4 7.1
2017-Dec-08 23:00N 53°51' E 008°60'4 8.4
2017-Dec-08 22:31N 53°50' E 008°53'4 8.2
2017-Dec-08 22:00N 53°51' E 008°46'4 7.1
2017-Dec-08 21:30N 53°54' E 008°42'3 6.2
2017-Dec-08 21:00N 53°56' E 008°39'4 8.1
2017-Dec-08 20:30N 53°58' E 008°33'5 9.8
2017-Dec-08 20:00N 53°59' E 008°25'510.4
2017-Dec-08 19:30N 53°59' E 008°16'511.0
2017-Dec-08 19:00N 53°59' E 008°07'510.4
2017-Dec-08 18:30N 53°58' E 007°58'4 8.8
2017-Dec-08 18:01N 53°58' E 007°51'8610.5
2017-Dec-08 09:47N 53°34' E 005°30'412.1
2017-Dec-08 09:30N 53°34' E 005°24'612.0
2017-Dec-08 09:00N 53°32' E 005°15'612.3
2017-Dec-08 08:30N 53°29' E 005°05'612.5
2017-Dec-08 08:01N 53°27' E 004°56'612.6
2017-Dec-08 07:30N 53°24' E 004°46'610.8
2017-Dec-08 07:00N 53°20' E 004°41'510.8
2017-Dec-08 06:30N 53°15' E 004°37'811.3
2017-Dec-08 05:49N 53°08' E 004°30'811.1
2017-Dec-08 05:03N 53°01' E 004°23'010.1
2017-Dec-08 05:00N 53°01' E 004°23'510.7
2017-Dec-08 04:30N 52°56' E 004°19'510.3
2017-Dec-08 04:00N 52°51' E 004°14'510.0
2017-Dec-08 03:30N 52°47' E 004°10'5 9.9
2017-Dec-08 03:01N 52°43' E 004°05'5 9.3
2017-Dec-08 02:30N 52°39' E 004°01'5 9.0
2017-Dec-08 02:00N 52°35' E 003°58'4 8.1
2017-Dec-08 01:30N 52°31' E 003°55'3 6.6
2017-Dec-08 01:00N 52°28' E 003°55'3 6.8
2017-Dec-08 00:31N 52°25' E 003°54'4 7.4
2017-Dec-08 00:01N 52°21' E 003°53'4 7.7
2017-Dec-07 23:30N 52°17' E 003°52'4 7.6
2017-Dec-07 23:00N 52°14' E 003°53'4 8.4
2017-Dec-07 22:30N 52°10' E 003°54'4 8.5
2017-Dec-07 22:01N 52°06' E 003°56'4 9.0
2017-Dec-07 21:31N 52°02' E 004°00'4 8.9
2017-Dec-07 21:00N 51°59' E 004°05'3 4.9
2017-Dec-07 20:27N 51°57' E 004°09'0 0.0
2017-Dec-07 20:00N 51°57' E 004°09'0 0.0
2017-Dec-07 19:30N 51°57' E 004°09'0 0.0
2017-Dec-07 18:57N 51°57' E 004°09'0 0.0
2017-Dec-07 18:30N 51°57' E 004°09'0 0.0
2017-Dec-07 18:00N 51°57' E 004°09'0 0.0
2017-Dec-07 17:30N 51°57' E 004°09'0 0.0
2017-Dec-07 16:57N 51°57' E 004°09'0 0.0
2017-Dec-07 16:30N 51°57' E 004°09'0 0.0
2017-Dec-07 16:00N 51°57' E 004°09'0 0.0
2017-Dec-07 15:27N 51°57' E 004°09'0 0.0
2017-Dec-07 15:00N 51°57' E 004°09'0 0.0
2017-Dec-07 14:30N 51°57' E 004°09'0 0.0
2017-Dec-07 14:00N 51°57' E 004°09'0 0.0
2017-Dec-07 13:30N 51°57' E 004°09'0 0.0
2017-Dec-07 13:00N 51°57' E 004°09'0 0.0
2017-Dec-07 12:30N 51°57' E 004°09'0 0.0
2017-Dec-07 12:00N 51°57' E 004°09'0 0.0
2017-Dec-07 11:30N 51°57' E 004°09'0 0.0
2017-Dec-07 11:00N 51°57' E 004°09'0 0.0
2017-Dec-07 10:30N 51°57' E 004°09'0 0.0
2017-Dec-07 10:00N 51°57' E 004°09'0 0.0
2017-Dec-07 09:27N 51°57' E 004°09'0 0.0
2017-Dec-07 09:00N 51°57' E 004°09'0 0.0
2017-Dec-07 08:30N 51°57' E 004°09'0 0.0
2017-Dec-07 08:00N 51°57' E 004°09'0 0.0
2017-Dec-07 07:30N 51°57' E 004°09'0 0.0
2017-Dec-07 07:00N 51°57' E 004°09'0 0.0
2017-Dec-07 06:30N 51°57' E 004°09'0 0.0
2017-Dec-07 05:57N 51°57' E 004°09'0 0.0
2017-Dec-07 05:30N 51°57' E 004°09'0 0.0
2017-Dec-07 05:00N 51°57' E 004°09'0 0.0
2017-Dec-07 04:30N 51°57' E 004°09'0 0.0
2017-Dec-07 04:00N 51°57' E 004°09'0 0.0
2017-Dec-07 03:30N 51°57' E 004°09'0 0.0
2017-Dec-07 03:00N 51°57' E 004°09'0 0.0
2017-Dec-07 02:30N 51°57' E 004°09'0 0.0
2017-Dec-07 02:00N 51°57' E 004°09'0 0.0
2017-Dec-07 01:30N 51°57' E 004°09'0 0.0
2017-Dec-07 00:57N 51°57' E 004°09'0 0.0
2017-Dec-07 00:30N 51°57' E 004°09'0 0.0
2017-Dec-06 23:57N 51°57' E 004°09'0 0.0
2017-Dec-06 23:30N 51°57' E 004°09'0 0.0
2017-Dec-06 22:57N 51°57' E 004°09'0 0.0
2017-Dec-06 22:30N 51°57' E 004°09'0 0.0
2017-Dec-06 22:00N 51°57' E 004°09'0 0.0
2017-Dec-06 21:30N 51°57' E 004°09'0 0.0
2017-Dec-06 21:00N 51°57' E 004°09'  
2017-Dec-04 10:24N 51°57' E 004°09'0 0.0
2017-Dec-04 09:57N 51°57' E 004°09'0 0.0
2017-Dec-04 09:29N 51°57' E 004°09'0 0.0
2017-Dec-04 08:59N 51°57' E 004°09'0 0.0
2017-Dec-04 08:29N 51°57' E 004°09'0 0.0
2017-Dec-04 07:59N 51°57' E 004°09'0 0.0
2017-Dec-04 07:29N 51°57' E 004°09'0 0.0
2017-Dec-04 06:59N 51°57' E 004°09'0 0.0
2017-Dec-04 06:29N 51°57' E 004°09'0 0.0
2017-Dec-04 05:59N 51°57' E 004°09'0 0.0
2017-Dec-04 05:26N 51°57' E 004°09'0 0.0
2017-Dec-04 04:56N 51°57' E 004°09'0 0.0
2017-Dec-04 04:29N 51°57' E 004°09'0 0.0
2017-Dec-04 03:59N 51°57' E 004°09'0 0.0
2017-Dec-04 03:29N 51°57' E 004°09'0 0.0
2017-Dec-04 02:59N 51°57' E 004°09'0 0.0
2017-Dec-04 02:29N 51°57' E 004°09'0 0.0
2017-Dec-04 01:59N 51°57' E 004°09'0 0.0
2017-Dec-04 01:26N 51°57' E 004°09'0 0.0
2017-Dec-04 00:53N 51°57' E 004°09'0 0.0
2017-Dec-04 00:29N 51°57' E 004°09'0 0.0
2017-Dec-03 23:59N 51°57' E 004°09'0 0.0
2017-Dec-03 23:29N 51°57' E 004°09'0 0.0
2017-Dec-03 22:59N 51°57' E 004°09'0 0.0
2017-Dec-03 22:29N 51°57' E 004°09'0 0.0
2017-Dec-03 21:59N 51°57' E 004°09'0 0.0
2017-Dec-03 21:29N 51°57' E 004°09'0 0.0
2017-Dec-03 20:59N 51°57' E 004°09'0 0.0
2017-Dec-03 20:29N 51°57' E 004°09'0 0.0
2017-Dec-03 19:59N 51°57' E 004°09'0 0.0
2017-Dec-03 19:29N 51°57' E 004°09'0 0.0
2017-Dec-03 18:59N 51°57' E 004°09'0 0.0
2017-Dec-03 18:29N 51°57' E 004°09'0 0.0
2017-Dec-03 17:59N 51°57' E 004°09'0 0.0
2017-Dec-03 17:29N 51°57' E 004°09'0 0.0
2017-Dec-03 16:59N 51°57' E 004°09'0 0.0
2017-Dec-03 16:29N 51°57' E 004°09'0 0.0
2017-Dec-03 15:59N 51°57' E 004°09'0 0.0
2017-Dec-03 15:29N 51°57' E 004°09'0 0.0
2017-Dec-03 14:53N 51°57' E 004°09'0 0.0
2017-Dec-03 14:26N 51°57' E 004°09'0 0.0
2017-Dec-03 13:59N 51°57' E 004°09'0 0.0
2017-Dec-03 13:29N 51°57' E 004°09'0 0.0
2017-Dec-03 12:56N 51°57' E 004°09'0 0.0
2017-Dec-03 12:29N 51°57' E 004°09'0 0.0
2017-Dec-03 11:56N 51°57' E 004°09'0 0.0
2017-Dec-03 11:29N 51°57' E 004°09'0 0.0
2017-Dec-03 10:59N 51°57' E 004°09'0 0.0
2017-Dec-03 10:29N 51°57' E 004°09'0 0.0
2017-Dec-03 09:56N 51°57' E 004°09'0 0.0
2017-Dec-03 09:29N 51°57' E 004°09'0 0.0
2017-Dec-03 08:56N 51°57' E 004°09'0 0.0
2017-Dec-03 08:26N 51°57' E 004°09'0 0.0
2017-Dec-03 07:59N 51°57' E 004°09'0 0.0
2017-Dec-03 07:26N 51°57' E 004°09'0 0.0
2017-Dec-03 06:59N 51°57' E 004°09'0 0.0
2017-Dec-03 06:29N 51°57' E 004°09'0 0.0
2017-Dec-03 05:59N 51°57' E 004°09'0 0.0
2017-Dec-03 05:29N 51°57' E 004°09'0 0.0
2017-Dec-03 04:59N 51°57' E 004°09'0 0.0
2017-Dec-03 04:26N 51°57' E 004°09'0 0.0
2017-Dec-03 03:59N 51°57' E 004°09'0 0.0
2017-Dec-03 03:26N 51°57' E 004°09'0 0.0
2017-Dec-03 02:56N 51°57' E 004°09'0 0.0
2017-Dec-03 02:29N 51°57' E 004°09'0 0.0
2017-Dec-03 01:56N 51°57' E 004°09'0 0.0
2017-Dec-03 01:29N 51°57' E 004°09'0 0.0
2017-Dec-03 00:59N 51°57' E 004°09'0 0.0
2017-Dec-03 00:29N 51°57' E 004°09'0 0.0
2017-Dec-02 23:53N 51°57' E 004°09'0 0.0
2017-Dec-02 23:29N 51°57' E 004°09'0 0.0
2017-Dec-02 22:59N 51°57' E 004°09'0 0.0
2017-Dec-02 22:29N 51°57' E 004°09'0 0.0
2017-Dec-02 21:59N 51°57' E 004°09'0 0.0
2017-Dec-02 21:29N 51°57' E 004°09'0 0.0
2017-Dec-02 20:56N 51°57' E 004°09'0 0.0
2017-Dec-02 20:29N 51°57' E 004°09'0 0.0
2017-Dec-02 19:59N 51°57' E 004°09'0 0.0
2017-Dec-02 19:29N 51°57' E 004°09'0 0.0
2017-Dec-02 18:59N 51°57' E 004°09'0 0.0
2017-Dec-02 18:29N 51°57' E 004°09'0 0.0
2017-Dec-02 17:56N 51°57' E 004°09'0 0.0
2017-Dec-02 17:29N 51°57' E 004°09'0 0.0
2017-Dec-02 16:59N 51°57' E 004°09'0 0.0
2017-Dec-02 16:29N 51°57' E 004°09'0 0.0
2017-Dec-02 15:59N 51°57' E 004°09'0 0.0
2017-Dec-02 15:29N 51°57' E 004°09'0 0.0
2017-Dec-02 14:59N 51°57' E 004°09'0 0.0
2017-Dec-02 14:26N 51°57' E 004°09'0 0.0
2017-Dec-02 13:59N 51°57' E 004°09'0 0.0
2017-Dec-02 13:29N 51°57' E 004°09'0 0.0
2017-Dec-02 13:00N 51°57' E 004°09'2 3.6
2017-Dec-02 12:30N 51°58' E 004°07'1 1.5
2017-Dec-02 12:00N 51°58' E 004°08'5 9.8
2017-Dec-02 11:30N 51°55' E 004°14'4 9.0
2017-Dec-02 11:00N 51°54' E 004°21'3 2.5
2017-Dec-02 09:59N 51°54' E 004°25'0 0.0
2017-Dec-02 09:29N 51°54' E 004°25'0 0.0
2017-Dec-02 08:59N 51°54' E 004°25'0 0.0
2017-Dec-02 08:29N 51°54' E 004°25'0 0.0
2017-Dec-02 07:59N 51°54' E 004°25'0 0.0
2017-Dec-02 07:29N 51°54' E 004°25'0 0.0
2017-Dec-02 06:59N 51°54' E 004°25'0 0.0
2017-Dec-02 06:29N 51°54' E 004°25'0 0.0
2017-Dec-02 05:59N 51°54' E 004°25'0 0.0
2017-Dec-02 05:29N 51°54' E 004°25'0 0.0
2017-Dec-02 04:59N 51°54' E 004°25'0 0.0
2017-Dec-02 04:29N 51°54' E 004°25'0 0.0
2017-Dec-02 03:59N 51°54' E 004°25'0 0.0
2017-Dec-02 03:29N 51°54' E 004°25'0 0.0
2017-Dec-02 02:59N 51°54' E 004°25'0 0.0
2017-Dec-02 02:29N 51°54' E 004°25'0 0.0
2017-Dec-02 01:29N 51°54' E 004°25'0 0.0
2017-Dec-02 00:59N 51°54' E 004°25'0 0.0
2017-Dec-02 00:29N 51°54' E 004°25'0 0.0
2017-Dec-01 23:59N 51°54' E 004°25'0 0.0
2017-Dec-01 23:29N 51°54' E 004°25'0 0.0
2017-Dec-01 22:59N 51°54' E 004°25'0 0.0
2017-Dec-01 22:29N 51°54' E 004°25'0 0.0
2017-Dec-01 21:59N 51°54' E 004°25'0 0.0
2017-Dec-01 21:29N 51°54' E 004°25'0 0.0
2017-Dec-01 20:59N 51°54' E 004°25'0 0.0
2017-Dec-01 20:29N 51°54' E 004°25'0 0.0
2017-Dec-01 19:59N 51°54' E 004°25'0 0.0
2017-Dec-01 19:29N 51°54' E 004°25'0 0.0
2017-Dec-01 18:59N 51°54' E 004°25'0 0.0
2017-Dec-01 18:29N 51°54' E 004°25'0 0.0
2017-Dec-01 17:59N 51°54' E 004°25'0 0.0
2017-Dec-01 17:29N 51°54' E 004°25'0 0.0
2017-Dec-01 16:59N 51°54' E 004°25'0 0.0
2017-Dec-01 16:29N 51°54' E 004°25'0 0.0
2017-Dec-01 15:59N 51°54' E 004°25'0 0.0
2017-Dec-01 15:29N 51°54' E 004°25'0 0.0
2017-Dec-01 14:59N 51°54' E 004°25'0 0.0
2017-Dec-01 14:29N 51°54' E 004°25'0 0.0
2017-Dec-01 13:59N 51°54' E 004°25'0 0.0
2017-Dec-01 13:29N 51°54' E 004°25'0 0.0
2017-Dec-01 12:59N 51°54' E 004°25'0 0.0
2017-Dec-01 12:29N 51°54' E 004°25'  
Track history (hours):
 
Tides and Currents Weather Stations Pressure Air Temp Water Temp Dewpoint Dewpoint Depression Visibility Wind Speed Wind Dir Waves Ship Positions

Froland

Last reported at 2017-Dec-11 12:15 UTC. Time now 2017-Dec-16 01:28 UTC.
Position N 60°28' E 019°02'.

Length 107 m; draft 5.7 m.

Type: Cargo ship. MMSI: 305714000.

Date/timePositionNaut miles runAvg speedWind from/ knotsBaromVisibWave heightAir tempDewpointWater temp
2017-Dec-11 12:15N 60°28' E 019°02'311.9
2017-Dec-11 12:00N 60°25' E 019°02'611.8
2017-Dec-11 11:31N 60°19' E 019°01'611.6
2017-Dec-11 11:01N 60°13' E 019°04'611.4
2017-Dec-11 10:31N 60°09' E 019°11'612.0
2017-Dec-11 10:00N 60°04' E 019°18'611.7
2017-Dec-11 09:28N 59°59' E 019°26'1111.5
2017-Dec-11 08:33N 59°51' E 019°39'111.4
2017-Dec-11 08:29N 59°50' E 019°40'25210.3
2017-Dec-10 07:55N 55°59' E 016°32'511.7
2017-Dec-10 07:30N 55°56' E 016°25'611.3
2017-Dec-10 07:00N 55°54' E 016°16'611.4
2017-Dec-10 06:31N 55°51' E 016°07'611.3
2017-Dec-10 06:00N 55°48' E 015°58'911.4
2017-Dec-10 05:11N 55°44' E 015°44'211.5
2017-Dec-10 05:00N 55°43' E 015°40'1111.5
2017-Dec-10 04:04N 55°38' E 015°23'111.4
2017-Dec-10 03:57N 55°37' E 015°21'611.5
2017-Dec-10 03:25N 55°34' E 015°12'811.5
2017-Dec-10 02:42N 55°30' E 014°59'211.6
2017-Dec-10 02:31N 55°29' E 014°56'611.5
2017-Dec-10 02:01N 55°26' E 014°47'611.4
2017-Dec-10 01:31N 55°24' E 014°38'611.0
2017-Dec-10 01:01N 55°19' E 014°32'511.0
2017-Dec-10 00:31N 55°15' E 014°27'510.7
2017-Dec-10 00:01N 55°11' E 014°21'511.0
2017-Dec-09 23:31N 55°06' E 014°15'8511.4
2017-Dec-09 16:00N 54°24' E 012°06'1212.1
2017-Dec-09 14:59N 54°25' E 011°45'612.5
2017-Dec-09 14:30N 54°27' E 011°35'612.7
2017-Dec-09 14:01N 54°30' E 011°26'713.0
2017-Dec-09 13:30N 54°33' E 011°15'612.6
2017-Dec-09 13:01N 54°35' E 011°05'612.2
2017-Dec-09 12:31N 54°34' E 010°54'611.9
2017-Dec-09 12:01N 54°34' E 010°44'611.7
2017-Dec-09 11:30N 54°33' E 010°34'27 6.5
2017-Dec-09 07:17N 54°22' E 009°51'2 7.7
2017-Dec-09 06:59N 54°22' E 009°47'4 8.2
2017-Dec-09 06:30N 54°18' E 009°43'4 7.7
2017-Dec-09 06:01N 54°16' E 009°38'1 0.9
2017-Dec-09 05:23N 54°15' E 009°37'0 0.2
2017-Dec-09 05:00N 54°15' E 009°37'3 5.8
2017-Dec-09 04:30N 54°13' E 009°35'4 8.6
2017-Dec-09 04:00N 54°11' E 009°29'5 8.7
2017-Dec-09 03:26N 54°09' E 009°21'4 8.1
2017-Dec-09 02:58N 54°05' E 009°19'4 8.6
2017-Dec-09 02:30N 54°01' E 009°18'4 8.2
2017-Dec-09 01:59N 53°57' E 009°15'3 7.1
2017-Dec-09 01:31N 53°55' E 009°11'2 3.5
2017-Dec-09 01:01N 53°54' E 009°09'0 0.1
2017-Dec-09 00:31N 53°54' E 009°09'1 2.8
2017-Dec-09 00:00N 53°53' E 009°06'1 1.8
2017-Dec-08 23:31N 53°53' E 009°05'4 7.1
2017-Dec-08 23:00N 53°51' E 008°60'4 8.4
2017-Dec-08 22:31N 53°50' E 008°53'4 8.2
2017-Dec-08 22:00N 53°51' E 008°46'4 7.1
2017-Dec-08 21:30N 53°54' E 008°42'3 6.2
2017-Dec-08 21:00N 53°56' E 008°39'4 8.1
2017-Dec-08 20:30N 53°58' E 008°33'5 9.8
2017-Dec-08 20:00N 53°59' E 008°25'510.4
2017-Dec-08 19:30N 53°59' E 008°16'511.0
2017-Dec-08 19:00N 53°59' E 008°07'510.4
2017-Dec-08 18:30N 53°58' E 007°58'4 8.8
2017-Dec-08 18:01N 53°58' E 007°51'8610.5
2017-Dec-08 09:47N 53°34' E 005°30'412.1
2017-Dec-08 09:30N 53°34' E 005°24'612.0
2017-Dec-08 09:00N 53°32' E 005°15'612.3
2017-Dec-08 08:30N 53°29' E 005°05'612.5
2017-Dec-08 08:01N 53°27' E 004°56'612.6
2017-Dec-08 07:30N 53°24' E 004°46'610.8
2017-Dec-08 07:00N 53°20' E 004°41'510.8
2017-Dec-08 06:30N 53°15' E 004°37'811.3
2017-Dec-08 05:49N 53°08' E 004°30'811.1
2017-Dec-08 05:03N 53°01' E 004°23'010.1
2017-Dec-08 05:00N 53°01' E 004°23'510.7
2017-Dec-08 04:30N 52°56' E 004°19'510.3
2017-Dec-08 04:00N 52°51' E 004°14'510.0
2017-Dec-08 03:30N 52°47' E 004°10'5 9.9
2017-Dec-08 03:01N 52°43' E 004°05'5 9.3
2017-Dec-08 02:30N 52°39' E 004°01'5 9.0
2017-Dec-08 02:00N 52°35' E 003°58'4 8.1
2017-Dec-08 01:30N 52°31' E 003°55'3 6.6
2017-Dec-08 01:00N 52°28' E 003°55'3 6.8
2017-Dec-08 00:31N 52°25' E 003°54'4 7.4
2017-Dec-08 00:01N 52°21' E 003°53'4 7.7
2017-Dec-07 23:30N 52°17' E 003°52'4 7.6
2017-Dec-07 23:00N 52°14' E 003°53'4 8.4
2017-Dec-07 22:30N 52°10' E 003°54'4 8.5
2017-Dec-07 22:01N 52°06' E 003°56'4 9.0
2017-Dec-07 21:31N 52°02' E 004°00'4 8.9
2017-Dec-07 21:00N 51°59' E 004°05'3 4.9
2017-Dec-07 20:27N 51°57' E 004°09'0 0.0
2017-Dec-07 20:00N 51°57' E 004°09'0 0.0
2017-Dec-07 19:30N 51°57' E 004°09'0 0.0
2017-Dec-07 18:57N 51°57' E 004°09'0 0.0
2017-Dec-07 18:30N 51°57' E 004°09'0 0.0
2017-Dec-07 18:00N 51°57' E 004°09'0 0.0
2017-Dec-07 17:30N 51°57' E 004°09'0 0.0
2017-Dec-07 16:57N 51°57' E 004°09'0 0.0
2017-Dec-07 16:30N 51°57' E 004°09'0 0.0
2017-Dec-07 16:00N 51°57' E 004°09'0 0.0
2017-Dec-07 15:27N 51°57' E 004°09'0 0.0
2017-Dec-07 15:00N 51°57' E 004°09'0 0.0
2017-Dec-07 14:30N 51°57' E 004°09'0 0.0
2017-Dec-07 14:00N 51°57' E 004°09'0 0.0
2017-Dec-07 13:30N 51°57' E 004°09'0 0.0
2017-Dec-07 13:00N 51°57' E 004°09'0 0.0
2017-Dec-07 12:30N 51°57' E 004°09'0 0.0
2017-Dec-07 12:00N 51°57' E 004°09'0 0.0
2017-Dec-07 11:30N 51°57' E 004°09'0 0.0
2017-Dec-07 11:00N 51°57' E 004°09'0 0.0
2017-Dec-07 10:30N 51°57' E 004°09'0 0.0
2017-Dec-07 10:00N 51°57' E 004°09'0 0.0
2017-Dec-07 09:27N 51°57' E 004°09'0 0.0
2017-Dec-07 09:00N 51°57' E 004°09'0 0.0
2017-Dec-07 08:30N 51°57' E 004°09'0 0.0
2017-Dec-07 08:00N 51°57' E 004°09'0 0.0
2017-Dec-07 07:30N 51°57' E 004°09'0 0.0
2017-Dec-07 07:00N 51°57' E 004°09'0 0.0
2017-Dec-07 06:30N 51°57' E 004°09'0 0.0
2017-Dec-07 05:57N 51°57' E 004°09'0 0.0
2017-Dec-07 05:30N 51°57' E 004°09'0 0.0
2017-Dec-07 05:00N 51°57' E 004°09'0 0.0
2017-Dec-07 04:30N 51°57' E 004°09'0 0.0
2017-Dec-07 04:00N 51°57' E 004°09'0 0.0
2017-Dec-07 03:30N 51°57' E 004°09'0 0.0
2017-Dec-07 03:00N 51°57' E 004°09'0 0.0
2017-Dec-07 02:30N 51°57' E 004°09'0 0.0
2017-Dec-07 02:00N 51°57' E 004°09'0 0.0
2017-Dec-07 01:30N 51°57' E 004°09'0 0.0
2017-Dec-07 00:57N 51°57' E 004°09'0 0.0
2017-Dec-07 00:30N 51°57' E 004°09'0 0.0
2017-Dec-06 23:57N 51°57' E 004°09'0 0.0
2017-Dec-06 23:30N 51°57' E 004°09'0 0.0
2017-Dec-06 22:57N 51°57' E 004°09'0 0.0
2017-Dec-06 22:30N 51°57' E 004°09'0 0.0
2017-Dec-06 22:00N 51°57' E 004°09'0 0.0
2017-Dec-06 21:30N 51°57' E 004°09'0 0.0
2017-Dec-06 21:00N 51°57' E 004°09'  
2017-Dec-04 10:24N 51°57' E 004°09'0 0.0
2017-Dec-04 09:57N 51°57' E 004°09'0 0.0
2017-Dec-04 09:29N 51°57' E 004°09'0 0.0
2017-Dec-04 08:59N 51°57' E 004°09'0 0.0
2017-Dec-04 08:29N 51°57' E 004°09'0 0.0
2017-Dec-04 07:59N 51°57' E 004°09'0 0.0
2017-Dec-04 07:29N 51°57' E 004°09'0 0.0
2017-Dec-04 06:59N 51°57' E 004°09'0 0.0
2017-Dec-04 06:29N 51°57' E 004°09'0 0.0
2017-Dec-04 05:59N 51°57' E 004°09'0 0.0
2017-Dec-04 05:26N 51°57' E 004°09'0 0.0
2017-Dec-04 04:56N 51°57' E 004°09'0 0.0
2017-Dec-04 04:29N 51°57' E 004°09'0 0.0
2017-Dec-04 03:59N 51°57' E 004°09'0 0.0
2017-Dec-04 03:29N 51°57' E 004°09'0 0.0
2017-Dec-04 02:59N 51°57' E 004°09'0 0.0
2017-Dec-04 02:29N 51°57' E 004°09'0 0.0
2017-Dec-04 01:59N 51°57' E 004°09'0 0.0
2017-Dec-04 01:26N 51°57' E 004°09'0 0.0
2017-Dec-04 00:53N 51°57' E 004°09'0 0.0
2017-Dec-04 00:29N 51°57' E 004°09'0 0.0
2017-Dec-03 23:59N 51°57' E 004°09'0 0.0
2017-Dec-03 23:29N 51°57' E 004°09'0 0.0
2017-Dec-03 22:59N 51°57' E 004°09'0 0.0
2017-Dec-03 22:29N 51°57' E 004°09'0 0.0
2017-Dec-03 21:59N 51°57' E 004°09'0 0.0
2017-Dec-03 21:29N 51°57' E 004°09'0 0.0
2017-Dec-03 20:59N 51°57' E 004°09'0 0.0
2017-Dec-03 20:29N 51°57' E 004°09'0 0.0
2017-Dec-03 19:59N 51°57' E 004°09'0 0.0
2017-Dec-03 19:29N 51°57' E 004°09'0 0.0
2017-Dec-03 18:59N 51°57' E 004°09'0 0.0
2017-Dec-03 18:29N 51°57' E 004°09'0 0.0
2017-Dec-03 17:59N 51°57' E 004°09'0 0.0
2017-Dec-03 17:29N 51°57' E 004°09'0 0.0
2017-Dec-03 16:59N 51°57' E 004°09'0 0.0
2017-Dec-03 16:29N 51°57' E 004°09'0 0.0
2017-Dec-03 15:59N 51°57' E 004°09'0 0.0
2017-Dec-03 15:29N 51°57' E 004°09'0 0.0
2017-Dec-03 14:53N 51°57' E 004°09'0 0.0
2017-Dec-03 14:26N 51°57' E 004°09'0 0.0
2017-Dec-03 13:59N 51°57' E 004°09'0 0.0
2017-Dec-03 13:29N 51°57' E 004°09'0 0.0
2017-Dec-03 12:56N 51°57' E 004°09'0 0.0
2017-Dec-03 12:29N 51°57' E 004°09'0 0.0
2017-Dec-03 11:56N 51°57' E 004°09'0 0.0
2017-Dec-03 11:29N 51°57' E 004°09'0 0.0
2017-Dec-03 10:59N 51°57' E 004°09'0 0.0
2017-Dec-03 10:29N 51°57' E 004°09'0 0.0
2017-Dec-03 09:56N 51°57' E 004°09'0 0.0
2017-Dec-03 09:29N 51°57' E 004°09'0 0.0
2017-Dec-03 08:56N 51°57' E 004°09'0 0.0
2017-Dec-03 08:26N 51°57' E 004°09'0 0.0
2017-Dec-03 07:59N 51°57' E 004°09'0 0.0
2017-Dec-03 07:26N 51°57' E 004°09'0 0.0
2017-Dec-03 06:59N 51°57' E 004°09'0 0.0
2017-Dec-03 06:29N 51°57' E 004°09'0 0.0
2017-Dec-03 05:59N 51°57' E 004°09'0 0.0
2017-Dec-03 05:29N 51°57' E 004°09'0 0.0
2017-Dec-03 04:59N 51°57' E 004°09'0 0.0
2017-Dec-03 04:26N 51°57' E 004°09'0 0.0
2017-Dec-03 03:59N 51°57' E 004°09'0 0.0
2017-Dec-03 03:26N 51°57' E 004°09'0 0.0
2017-Dec-03 02:56N 51°57' E 004°09'0 0.0
2017-Dec-03 02:29N 51°57' E 004°09'0 0.0
2017-Dec-03 01:56N 51°57' E 004°09'0 0.0
2017-Dec-03 01:29N 51°57' E 004°09'0 0.0
2017-Dec-03 00:59N 51°57' E 004°09'0 0.0
2017-Dec-03 00:29N 51°57' E 004°09'0 0.0
2017-Dec-02 23:53N 51°57' E 004°09'0 0.0
2017-Dec-02 23:29N 51°57' E 004°09'0 0.0
2017-Dec-02 22:59N 51°57' E 004°09'0 0.0
2017-Dec-02 22:29N 51°57' E 004°09'0 0.0
2017-Dec-02 21:59N 51°57' E 004°09'0 0.0
2017-Dec-02 21:29N 51°57' E 004°09'0 0.0
2017-Dec-02 20:56N 51°57' E 004°09'0 0.0
2017-Dec-02 20:29N 51°57' E 004°09'0 0.0
2017-Dec-02 19:59N 51°57' E 004°09'0 0.0
2017-Dec-02 19:29N 51°57' E 004°09'0 0.0
2017-Dec-02 18:59N 51°57' E 004°09'0 0.0
2017-Dec-02 18:29N 51°57' E 004°09'0 0.0
2017-Dec-02 17:56N 51°57' E 004°09'0 0.0
2017-Dec-02 17:29N 51°57' E 004°09'0 0.0
2017-Dec-02 16:59N 51°57' E 004°09'0 0.0
2017-Dec-02 16:29N 51°57' E 004°09'0 0.0
2017-Dec-02 15:59N 51°57' E 004°09'0 0.0
2017-Dec-02 15:29N 51°57' E 004°09'0 0.0
2017-Dec-02 14:59N 51°57' E 004°09'0 0.0
2017-Dec-02 14:26N 51°57' E 004°09'0 0.0
2017-Dec-02 13:59N 51°57' E 004°09'0 0.0
2017-Dec-02 13:29N 51°57' E 004°09'0 0.0
2017-Dec-02 13:00N 51°57' E 004°09'2 3.6
2017-Dec-02 12:30N 51°58' E 004°07'1 1.5
2017-Dec-02 12:00N 51°58' E 004°08'5 9.8
2017-Dec-02 11:30N 51°55' E 004°14'4 9.0
2017-Dec-02 11:00N 51°54' E 004°21'3 2.5
2017-Dec-02 09:59N 51°54' E 004°25'0 0.0
2017-Dec-02 09:29N 51°54' E 004°25'0 0.0
2017-Dec-02 08:59N 51°54' E 004°25'0 0.0
2017-Dec-02 08:29N 51°54' E 004°25'0 0.0
2017-Dec-02 07:59N 51°54' E 004°25'0 0.0
2017-Dec-02 07:29N 51°54' E 004°25'0 0.0
2017-Dec-02 06:59N 51°54' E 004°25'0 0.0
2017-Dec-02 06:29N 51°54' E 004°25'0 0.0
2017-Dec-02 05:59N 51°54' E 004°25'0 0.0
2017-Dec-02 05:29N 51°54' E 004°25'0 0.0
2017-Dec-02 04:59N 51°54' E 004°25'0 0.0
2017-Dec-02 04:29N 51°54' E 004°25'0 0.0
2017-Dec-02 03:59N 51°54' E 004°25'0 0.0
2017-Dec-02 03:29N 51°54' E 004°25'0 0.0
2017-Dec-02 02:59N 51°54' E 004°25'0 0.0
2017-Dec-02 02:29N 51°54' E 004°25'0 0.0
2017-Dec-02 01:29N 51°54' E 004°25'0 0.0
2017-Dec-02 00:59N 51°54' E 004°25'0 0.0
2017-Dec-02 00:29N 51°54' E 004°25'0 0.0
2017-Dec-01 23:59N 51°54' E 004°25'0 0.0
2017-Dec-01 23:29N 51°54' E 004°25'0 0.0
2017-Dec-01 22:59N 51°54' E 004°25'0 0.0
2017-Dec-01 22:29N 51°54' E 004°25'0 0.0
2017-Dec-01 21:59N 51°54' E 004°25'0 0.0
2017-Dec-01 21:29N 51°54' E 004°25'0 0.0
2017-Dec-01 20:59N 51°54' E 004°25'0 0.0
2017-Dec-01 20:29N 51°54' E 004°25'0 0.0
2017-Dec-01 19:59N 51°54' E 004°25'0 0.0
2017-Dec-01 19:29N 51°54' E 004°25'0 0.0
2017-Dec-01 18:59N 51°54' E 004°25'0 0.0
2017-Dec-01 18:29N 51°54' E 004°25'0 0.0
2017-Dec-01 17:59N 51°54' E 004°25'0 0.0
2017-Dec-01 17:29N 51°54' E 004°25'0 0.0
2017-Dec-01 16:59N 51°54' E 004°25'0 0.0
2017-Dec-01 16:29N 51°54' E 004°25'0 0.0
2017-Dec-01 15:59N 51°54' E 004°25'0 0.0
2017-Dec-01 15:29N 51°54' E 004°25'0 0.0
2017-Dec-01 14:59N 51°54' E 004°25'0 0.0
2017-Dec-01 14:29N 51°54' E 004°25'0 0.0
2017-Dec-01 13:59N 51°54' E 004°25'0 0.0
2017-Dec-01 13:29N 51°54' E 004°25'0 0.0
2017-Dec-01 12:59N 51°54' E 004°25'0 0.0
2017-Dec-01 12:29N 51°54' E 004°25'  

Dump ship's entire track history